Hauptseite
METAR-TAF:

METAR-TAF

Flughäfen :

New York / LaGuardia, New York, Vereinigte Staaten

LaGuardia Airport

Breite: 40-46-45N, Länge: 073-52-48W, Höhe: 6 m

Beobachtung

Neuester Wetterbericht von vor 23 Minuten, um 13:51 UTC
Wind 10 kt aus Nordwest
Temperatur 17°C
Luftfeuchtigkeit 42%
Luftdruck 1022 hPa
Sichtweite: 16.1 km
Leicht bewölkt in der Höhe von 25000 ft

METAR: KLGA 201351Z 31010KT 10SM FEW250 17/04 A3017 RMK AO2 SLP217 T01720044

Zeit: 10:14 (14:14 UTC)

Prognose

Neuester Wetterbericht von vor 44 Minuten, um 13:30 UTC
Gültige Prognose vom 20 um 14 UTC bis 21 um 12 UTC
Wind 11 kt aus Nordwest, Böen bis zu 17 kt
Sichtweite: 10 km
Himmel klar
Ab 20 um 1900 UTC
Wind 9 kt aus Nordwest
Sichtweite: 10 km
Himmel klar
Ab 21 um 0400 UTC
Wind 5 kt aus Nord/Nordwest
Sichtweite: 10 km
Himmel klar

TAF: KLGA 201330Z 2014/2112 32011G17KT P6SM SKC FM201900 31009KT P6SM SKC FM210400 33005KT P6SM SKC

Wetterbeobachtungen und Prognosen von mehr als 4000 Flughäfen (METAR und TAF Bericht).

Die verfügbaren Stationen werden durch gelbe und rote Markierungen auf der Karte dargestellt.

Führen Sie die Maus auf sie, um den Namen der Station zu sehen.

Darauf klicken, um die Beobachtung von Wetterbeobachtungen und Prognosen zu sehen.

Um die Karte zu ändern : klicken Sie auf den grünen Tasten mit einem schwarzen Kreuz Zum Vergrößern, auf den grünen Button mit einem Gedankenstrich zu verkleinern, oder auf die grünen Pfeile für benachbarte Karten.


METAR-TAF: